sensor_id;sensor_type;location;lat;lon;timestamp;pressure;altitude;pressure_sealevel;temperature;humidity
74675;BME280;63200;48.810;12.352;2023-05-10T00:02:25;96813.81;;;12.60;61.11
74675;BME280;63200;48.810;12.352;2023-05-10T00:04:50;96818.81;;;12.35;62.07
74675;BME280;63200;48.810;12.352;2023-05-10T00:07:16;96821.19;;;12.28;62.77
74675;BME280;63200;48.810;12.352;2023-05-10T00:09:42;96817.81;;;12.31;62.33
74675;BME280;63200;48.810;12.352;2023-05-10T00:12:08;96820.41;;;12.36;62.24
74675;BME280;63200;48.810;12.352;2023-05-10T00:14:33;96817.50;;;12.32;61.94
74675;BME280;63200;48.810;12.352;2023-05-10T00:16:58;96777.50;;;12.02;62.22
74675;BME280;63200;48.810;12.352;2023-05-10T00:19:24;96817.09;;;12.16;62.44
74675;BME280;63200;48.810;12.352;2023-05-10T00:21:49;96812.59;;;12.12;62.48
74675;BME280;63200;48.810;12.352;2023-05-10T00:24:15;96810.16;;;12.10;63.01
74675;BME280;63200;48.810;12.352;2023-05-10T00:26:40;96812.44;;;12.17;62.66
74675;BME280;63200;48.810;12.352;2023-05-10T00:29:07;96803.38;;;12.22;62.17
74675;BME280;63200;48.810;12.352;2023-05-10T00:31:32;96790.84;;;12.12;61.87
74675;BME280;63200;48.810;12.352;2023-05-10T00:33:57;96808.50;;;12.23;61.88
74675;BME280;63200;48.810;12.352;2023-05-10T00:36:23;96805.03;;;12.09;62.40
74675;BME280;63200;48.810;12.352;2023-05-10T00:38:48;96809.16;;;11.97;62.92
74675;BME280;63200;48.810;12.352;2023-05-10T00:41:14;96805.53;;;11.88;63.55
74675;BME280;63200;48.810;12.352;2023-05-10T00:43:39;96811.88;;;11.83;64.71
74675;BME280;63200;48.810;12.352;2023-05-10T00:46:04;96811.41;;;11.81;64.78
74675;BME280;63200;48.810;12.352;2023-05-10T00:48:31;96808.31;;;11.74;65.30
74675;BME280;63200;48.810;12.352;2023-05-10T00:50:56;96806.69;;;11.73;65.82
74675;BME280;63200;48.810;12.352;2023-05-10T00:53:21;96810.03;;;11.70;65.71
74675;BME280;63200;48.810;12.352;2023-05-10T00:55:47;96812.56;;;11.66;65.40
74675;BME280;63200;48.810;12.352;2023-05-10T00:58:12;96811.38;;;11.59;65.40
74675;BME280;63200;48.810;12.352;2023-05-10T01:00:41;96808.06;;;11.62;65.33
74675;BME280;63200;48.810;12.352;2023-05-10T01:03:07;96812.19;;;11.59;65.52
74675;BME280;63200;48.810;12.352;2023-05-10T01:05:32;96814.09;;;11.59;65.43
74675;BME280;63200;48.810;12.352;2023-05-10T01:07:58;96812.06;;;11.64;65.42
74675;BME280;63200;48.810;12.352;2023-05-10T01:10:23;96802.75;;;11.79;65.90
74675;BME280;63200;48.810;12.352;2023-05-10T01:12:49;96808.06;;;11.84;65.29
74675;BME280;63200;48.810;12.352;2023-05-10T01:15:15;96774.56;;;11.75;65.14
74675;BME280;63200;48.810;12.352;2023-05-10T01:17:42;96793.97;;;12.05;64.66
74675;BME280;63200;48.810;12.352;2023-05-10T01:20:10;96805.34;;;12.07;65.45
74675;BME280;63200;48.810;12.352;2023-05-10T01:22:47;96804.13;;;12.13;65.40
74675;BME280;63200;48.810;12.352;2023-05-10T01:38:55;96795.78;;;12.41;63.97
74675;BME280;63200;48.810;12.352;2023-05-10T01:41:39;96791.63;;;12.44;63.95
74675;BME280;63200;48.810;12.352;2023-05-10T01:47:02;96801.63;;;12.57;63.20
74675;BME280;63200;48.810;12.352;2023-05-10T01:49:30;96795.84;;;12.59;62.97
74675;BME280;63200;48.810;12.352;2023-05-10T01:52:04;96802.91;;;12.60;62.93
74675;BME280;63200;48.810;12.352;2023-05-10T01:54:33;96803.06;;;12.55;63.17
74675;BME280;63200;48.810;12.352;2023-05-10T01:57:03;96802.09;;;12.59;63.00
74675;BME280;63200;48.810;12.352;2023-05-10T01:59:34;96796.00;;;12.54;63.45
74675;BME280;63200;48.810;12.352;2023-05-10T02:02:06;96803.69;;;12.52;63.15
74675;BME280;63200;48.810;12.352;2023-05-10T02:04:35;96799.34;;;12.50;63.19
74675;BME280;63200;48.810;12.352;2023-05-10T02:07:00;96808.69;;;12.58;63.28
74675;BME280;63200;48.810;12.352;2023-05-10T02:09:26;96783.63;;;12.47;63.70
74675;BME280;63200;48.810;12.352;2023-05-10T02:11:53;96811.88;;;12.60;63.54
74675;BME280;63200;48.810;12.352;2023-05-10T02:14:20;96807.59;;;12.68;62.51
74675;BME280;63200;48.810;12.352;2023-05-10T02:16:47;96806.78;;;12.68;61.83
74675;BME280;63200;48.810;12.352;2023-05-10T02:19:15;96809.81;;;12.66;62.71
74675;BME280;63200;48.810;12.352;2023-05-10T02:21:41;96814.66;;;12.69;62.75
74675;BME280;63200;48.810;12.352;2023-05-10T02:24:08;96812.38;;;12.71;62.51
74675;BME280;63200;48.810;12.352;2023-05-10T02:26:35;96780.09;;;12.47;61.49
74675;BME280;63200;48.810;12.352;2023-05-10T02:29:03;96812.38;;;12.71;61.50
74675;BME280;63200;48.810;12.352;2023-05-10T02:31:30;96809.38;;;12.73;62.05
74675;BME280;63200;48.810;12.352;2023-05-10T02:33:57;96811.28;;;12.72;62.39
74675;BME280;63200;48.810;12.352;2023-05-10T02:36:24;96817.69;;;12.76;62.27
74675;BME280;63200;48.810;12.352;2023-05-10T02:38:51;96788.97;;;12.61;62.12
74675;BME280;63200;48.810;12.352;2023-05-10T02:41:18;96816.28;;;12.79;62.32
74675;BME280;63200;48.810;12.352;2023-05-10T02:43:45;96788.97;;;12.61;62.79
74675;BME280;63200;48.810;12.352;2023-05-10T02:46:11;96804.84;;;12.68;62.96
74675;BME280;63200;48.810;12.352;2023-05-10T02:48:36;96809.50;;;12.68;64.16
74675;BME280;63200;48.810;12.352;2023-05-10T02:51:05;96807.41;;;12.64;64.47
74675;BME280;63200;48.810;12.352;2023-05-10T02:53:34;96815.41;;;12.61;63.97
74675;BME280;63200;48.810;12.352;2023-05-10T02:56:04;96815.69;;;12.59;64.64
74675;BME280;63200;48.810;12.352;2023-05-10T02:58:32;96810.91;;;12.56;65.41
74675;BME280;63200;48.810;12.352;2023-05-10T03:00:57;96813.16;;;12.54;66.40
74675;BME280;63200;48.810;12.352;2023-05-10T03:03:23;96812.00;;;12.55;66.71
74675;BME280;63200;48.810;12.352;2023-05-10T03:05:48;96782.78;;;12.38;67.64
74675;BME280;63200;48.810;12.352;2023-05-10T03:08:13;96809.13;;;12.52;67.42
74675;BME280;63200;48.810;12.352;2023-05-10T03:10:50;96808.63;;;12.49;67.99
74675;BME280;63200;48.810;12.352;2023-05-10T03:13:53;96763.06;;;12.24;67.65
74675;BME280;63200;48.810;12.352;2023-05-10T03:16:35;96815.41;;;12.61;68.53
74675;BME280;63200;48.810;12.352;2023-05-10T03:19:06;96814.13;;;12.58;68.38
74675;BME280;63200;48.810;12.352;2023-05-10T03:21:37;96810.06;;;12.47;68.43
74675;BME280;63200;48.810;12.352;2023-05-10T03:24:07;96810.50;;;12.40;69.56
74675;BME280;63200;48.810;12.352;2023-05-10T03:26:37;96803.94;;;12.41;69.81
74675;BME280;63200;48.810;12.352;2023-05-10T03:29:04;96786.91;;;12.27;69.73
74675;BME280;63200;48.810;12.352;2023-05-10T03:31:30;96802.66;;;12.39;69.79
74675;BME280;63200;48.810;12.352;2023-05-10T03:33:55;96809.03;;;12.34;70.02
74675;BME280;63200;48.810;12.352;2023-05-10T03:36:21;96818.94;;;12.30;70.56
74675;BME280;63200;48.810;12.352;2023-05-10T03:38:46;96807.38;;;12.24;71.38
74675;BME280;63200;48.810;12.352;2023-05-10T03:41:12;96785.81;;;12.05;71.37
74675;BME280;63200;48.810;12.352;2023-05-10T03:43:37;96809.72;;;12.17;72.08
74675;BME280;63200;48.810;12.352;2023-05-10T03:46:04;96812.44;;;12.17;72.19
74675;BME280;63200;48.810;12.352;2023-05-10T03:48:30;96770.47;;;11.87;72.48
74675;BME280;63200;48.810;12.352;2023-05-10T03:50:56;96819.63;;;12.13;71.74
74675;BME280;63200;48.810;12.352;2023-05-10T03:53:22;96804.25;;;12.08;71.94
74675;BME280;63200;48.810;12.352;2023-05-10T03:55:48;96817.88;;;12.17;72.78
74675;BME280;63200;48.810;12.352;2023-05-10T03:58:13;96822.53;;;12.16;73.38
74675;BME280;63200;48.810;12.352;2023-05-10T04:00:39;96823.50;;;12.12;73.71
74675;BME280;63200;48.810;12.352;2023-05-10T04:03:09;96820.56;;;12.08;72.99
74675;BME280;63200;48.810;12.352;2023-05-10T04:05:34;96800.47;;;11.95;73.06
74675;BME280;63200;48.810;12.352;2023-05-10T04:08:00;96825.34;;;12.03;73.58
74675;BME280;63200;48.810;12.352;2023-05-10T04:10:25;96822.31;;;12.04;73.79
74675;BME280;63200;48.810;12.352;2023-05-10T04:12:50;96824.09;;;12.09;73.99
74675;BME280;63200;48.810;12.352;2023-05-10T04:15:16;96826.34;;;12.07;73.77
74675;BME280;63200;48.810;12.352;2023-05-10T04:17:41;96823.91;;;12.05;74.05
74675;BME280;63200;48.810;12.352;2023-05-10T04:20:07;96822.13;;;12.00;73.95
74675;BME280;63200;48.810;12.352;2023-05-10T04:22:33;96829.97;;;12.02;73.99
74675;BME280;63200;48.810;12.352;2023-05-10T04:24:58;96826.13;;;12.03;74.22
74675;BME280;63200;48.810;12.352;2023-05-10T04:27:23;96824.66;;;11.97;74.13
74675;BME280;63200;48.810;12.352;2023-05-10T04:29:49;96807.75;;;11.86;74.59
74675;BME280;63200;48.810;12.352;2023-05-10T04:32:15;96822.53;;;11.94;75.08
74675;BME280;63200;48.810;12.352;2023-05-10T04:34:42;96826.63;;;12.05;75.01
74675;BME280;63200;48.810;12.352;2023-05-10T04:37:07;96824.22;;;12.04;75.72
74675;BME280;63200;48.810;12.352;2023-05-10T04:39:32;96826.78;;;12.00;76.41
74675;BME280;63200;48.810;12.352;2023-05-10T04:41:58;96827.19;;;11.93;76.96
74675;BME280;63200;48.810;12.352;2023-05-10T04:44:23;96833.50;;;12.03;77.25
74675;BME280;63200;48.810;12.352;2023-05-10T04:46:48;96818.34;;;12.10;76.79
74675;BME280;63200;48.810;12.352;2023-05-10T04:49:13;96829.66;;;12.04;77.03
74675;BME280;63200;48.810;12.352;2023-05-10T04:51:39;96839.00;;;12.11;77.42
74675;BME280;63200;48.810;12.352;2023-05-10T04:54:04;96821.38;;;12.09;77.39
74675;BME280;63200;48.810;12.352;2023-05-10T04:56:30;96829.63;;;12.26;77.50
74675;BME280;63200;48.810;12.352;2023-05-10T04:58:55;96826.50;;;12.33;77.52
74675;BME280;63200;48.810;12.352;2023-05-10T05:01:20;96834.81;;;12.37;77.59
74675;BME280;63200;48.810;12.352;2023-05-10T05:03:45;96839.59;;;12.31;77.59
74675;BME280;63200;48.810;12.352;2023-05-10T05:06:11;96836.16;;;12.16;77.36
74675;BME280;63200;48.810;12.352;2023-05-10T05:08:36;96803.28;;;11.90;77.47
74675;BME280;63200;48.810;12.352;2023-05-10T05:11:01;96846.69;;;12.09;77.93
74675;BME280;63200;48.810;12.352;2023-05-10T05:13:27;96842.81;;;12.10;78.05
74675;BME280;63200;48.810;12.352;2023-05-10T05:15:52;96842.22;;;12.13;77.79
74675;BME280;63200;48.810;12.352;2023-05-10T05:18:18;96854.34;;;12.07;78.11
74675;BME280;63200;48.810;12.352;2023-05-10T05:20:43;96849.19;;;12.06;78.55
74675;BME280;63200;48.810;12.352;2023-05-10T05:23:09;96835.63;;;11.92;78.75
74675;BME280;63200;48.810;12.352;2023-05-10T05:25:34;96825.06;;;11.90;78.61
74675;BME280;63200;48.810;12.352;2023-05-10T05:27:59;96830.28;;;11.87;78.53
74675;BME280;63200;48.810;12.352;2023-05-10T05:30:24;96863.34;;;12.16;78.88
74675;BME280;63200;48.810;12.352;2023-05-10T05:32:50;96836.41;;;12.06;78.82
74675;BME280;63200;48.810;12.352;2023-05-10T05:35:15;96854.13;;;12.26;78.93
74675;BME280;63200;48.810;12.352;2023-05-10T05:37:40;96861.69;;;12.29;78.70
74675;BME280;63200;48.810;12.352;2023-05-10T05:40:06;96863.16;;;12.36;78.82
74675;BME280;63200;48.810;12.352;2023-05-10T05:42:32;96857.09;;;12.39;78.51
74675;BME280;63200;48.810;12.352;2023-05-10T05:44:57;96872.19;;;12.45;78.50
74675;BME280;63200;48.810;12.352;2023-05-10T05:47:22;96861.00;;;12.55;78.51
74675;BME280;63200;48.810;12.352;2023-05-10T05:49:48;96857.25;;;12.65;79.00
74675;BME280;63200;48.810;12.352;2023-05-10T05:52:13;96864.13;;;12.71;78.46
74675;BME280;63200;48.810;12.352;2023-05-10T05:54:38;96863.69;;;12.78;78.37
74675;BME280;63200;48.810;12.352;2023-05-10T05:57:04;96860.97;;;12.78;78.22
74675;BME280;63200;48.810;12.352;2023-05-10T05:59:29;96866.28;;;12.83;78.32
74675;BME280;63200;48.810;12.352;2023-05-10T06:01:54;96876.97;;;12.71;78.07
74675;BME280;63200;48.810;12.352;2023-05-10T06:04:20;96882.84;;;12.64;78.43
74675;BME280;63200;48.810;12.352;2023-05-10T06:06:45;96884.78;;;12.63;78.39
74675;BME280;63200;48.810;12.352;2023-05-10T06:09:10;96893.22;;;12.53;78.42
74675;BME280;63200;48.810;12.352;2023-05-10T06:11:36;96890.63;;;12.48;78.36
74675;BME280;63200;48.810;12.352;2023-05-10T06:14:02;96898.78;;;12.48;78.76
74675;BME280;63200;48.810;12.352;2023-05-10T06:16:29;96901.75;;;12.38;78.70
74675;BME280;63200;48.810;12.352;2023-05-10T06:18:55;96900.78;;;12.33;78.62
74675;BME280;63200;48.810;12.352;2023-05-10T06:21:20;96905.09;;;12.35;78.84
74675;BME280;63200;48.810;12.352;2023-05-10T06:23:46;96909.00;;;12.42;78.81
74675;BME280;63200;48.810;12.352;2023-05-10T06:26:11;96910.47;;;12.48;78.55
74675;BME280;63200;48.810;12.352;2023-05-10T06:28:36;96927.06;;;12.61;78.53
74675;BME280;63200;48.810;12.352;2023-05-10T06:31:04;96926.28;;;12.69;78.64
74675;BME280;63200;48.810;12.352;2023-05-10T06:33:30;96925.34;;;12.74;78.89
74675;BME280;63200;48.810;12.352;2023-05-10T06:35:55;96929.06;;;12.78;78.58
74675;BME280;63200;48.810;12.352;2023-05-10T06:38:21;96935.00;;;12.80;78.30
74675;BME280;63200;48.810;12.352;2023-05-10T06:40:46;96947.84;;;12.88;78.39
74675;BME280;63200;48.810;12.352;2023-05-10T06:43:11;96936.13;;;12.79;77.60
74675;BME280;63200;48.810;12.352;2023-05-10T06:45:37;96943.97;;;12.80;77.81
74675;BME280;63200;48.810;12.352;2023-05-10T06:48:02;96945.59;;;12.81;77.56
74675;BME280;63200;48.810;12.352;2023-05-10T06:50:27;96934.81;;;12.76;77.48
74675;BME280;63200;48.810;12.352;2023-05-10T06:52:53;96941.25;;;12.80;77.48
74675;BME280;63200;48.810;12.352;2023-05-10T06:55:18;96918.91;;;12.70;77.37
74675;BME280;63200;48.810;12.352;2023-05-10T06:57:43;96949.97;;;12.91;77.32
74675;BME280;63200;48.810;12.352;2023-05-10T07:00:09;96944.53;;;12.91;77.27
74675;BME280;63200;48.810;12.352;2023-05-10T07:02:35;96954.66;;;12.99;77.12
74675;BME280;63200;48.810;12.352;2023-05-10T07:05:00;96955.50;;;13.09;76.89
74675;BME280;63200;48.810;12.352;2023-05-10T07:07:26;96963.63;;;13.00;76.31
74675;BME280;63200;48.810;12.352;2023-05-10T07:09:51;96919.63;;;12.84;76.58
74675;BME280;63200;48.810;12.352;2023-05-10T07:12:17;96973.22;;;12.97;75.79
74675;BME280;63200;48.810;12.352;2023-05-10T07:14:42;96970.16;;;12.90;76.10
74675;BME280;63200;48.810;12.352;2023-05-10T07:17:07;96973.53;;;12.96;76.65
74675;BME280;63200;48.810;12.352;2023-05-10T07:19:33;96978.28;;;13.13;76.56
74675;BME280;63200;48.810;12.352;2023-05-10T07:21:58;96978.16;;;13.18;75.85
74675;BME280;63200;48.810;12.352;2023-05-10T07:24:23;96980.59;;;13.28;76.24
74675;BME280;63200;48.810;12.352;2023-05-10T07:26:49;96973.88;;;13.26;75.72
74675;BME280;63200;48.810;12.352;2023-05-10T07:29:14;96988.25;;;13.49;75.77
74675;BME280;63200;48.810;12.352;2023-05-10T07:31:40;96988.59;;;13.56;75.74
74675;BME280;63200;48.810;12.352;2023-05-10T07:34:07;96998.38;;;13.57;75.38
74675;BME280;63200;48.810;12.352;2023-05-10T07:36:33;96985.72;;;13.61;75.25
74675;BME280;63200;48.810;12.352;2023-05-10T07:38:58;96991.19;;;13.70;75.01
74675;BME280;63200;48.810;12.352;2023-05-10T07:41:23;96995.72;;;13.75;74.93
74675;BME280;63200;48.810;12.352;2023-05-10T07:43:49;97001.16;;;13.83;74.87
74675;BME280;63200;48.810;12.352;2023-05-10T07:46:14;97002.78;;;13.85;74.84
74675;BME280;63200;48.810;12.352;2023-05-10T07:48:39;97003.09;;;13.83;74.35
74675;BME280;63200;48.810;12.352;2023-05-10T07:51:05;96996.78;;;13.65;73.70
74675;BME280;63200;48.810;12.352;2023-05-10T07:53:32;97001.00;;;13.71;74.18
74675;BME280;63200;48.810;12.352;2023-05-10T07:55:58;96978.66;;;13.69;73.93
74675;BME280;63200;48.810;12.352;2023-05-10T07:58:24;97007.44;;;13.93;74.47
74675;BME280;63200;48.810;12.352;2023-05-10T08:00:49;97013.09;;;13.96;73.56
74675;BME280;63200;48.810;12.352;2023-05-10T08:03:14;97008.06;;;13.81;72.62
74675;BME280;63200;48.810;12.352;2023-05-10T08:05:40;97013.69;;;13.85;73.75
74675;BME280;63200;48.810;12.352;2023-05-10T08:08:05;97020.13;;;13.89;74.10
74675;BME280;63200;48.810;12.352;2023-05-10T08:10:31;97014.94;;;13.70;73.94
74675;BME280;63200;48.810;12.352;2023-05-10T08:12:56;97021.47;;;13.60;74.42
74675;BME280;63200;48.810;12.352;2023-05-10T08:15:23;97001.59;;;13.59;74.54
74675;BME280;63200;48.810;12.352;2023-05-10T08:17:49;97022.84;;;13.89;74.38
74675;BME280;63200;48.810;12.352;2023-05-10T08:20:15;97032.88;;;14.11;74.48
74675;BME280;63200;48.810;12.352;2023-05-10T08:22:44;97023.25;;;14.22;72.85
74675;BME280;63200;48.810;12.352;2023-05-10T08:25:09;97024.41;;;14.47;73.20
74675;BME280;63200;48.810;12.352;2023-05-10T08:27:35;97018.91;;;14.56;73.05
74675;BME280;63200;48.810;12.352;2023-05-10T08:30:00;97028.44;;;14.68;72.67
74675;BME280;63200;48.810;12.352;2023-05-10T08:32:25;97025.03;;;14.62;72.88
74675;BME280;63200;48.810;12.352;2023-05-10T08:34:50;97001.41;;;14.48;72.07
74675;BME280;63200;48.810;12.352;2023-05-10T08:37:16;97039.34;;;14.76;72.54
74675;BME280;63200;48.810;12.352;2023-05-10T08:39:41;97031.16;;;14.94;71.77
74675;BME280;63200;48.810;12.352;2023-05-10T08:42:07;97034.00;;;15.06;71.33
74675;BME280;63200;48.810;12.352;2023-05-10T08:44:34;97004.59;;;15.03;71.39
74675;BME280;63200;48.810;12.352;2023-05-10T08:47:04;97034.13;;;15.27;71.06
74675;BME280;63200;48.810;12.352;2023-05-10T08:49:31;97029.09;;;15.38;70.76
74675;BME280;63200;48.810;12.352;2023-05-10T08:51:57;97041.84;;;15.25;70.34
74675;BME280;63200;48.810;12.352;2023-05-10T08:54:23;97037.41;;;15.03;70.82
74675;BME280;63200;48.810;12.352;2023-05-10T08:56:49;97034.53;;;14.82;71.63
74675;BME280;63200;48.810;12.352;2023-05-10T08:59:14;97044.00;;;14.76;71.67
74675;BME280;63200;48.810;12.352;2023-05-10T09:01:42;97031.47;;;14.57;72.42
74675;BME280;63200;48.810;12.352;2023-05-10T09:04:09;97037.44;;;14.68;72.51
74675;BME280;63200;48.810;12.352;2023-05-10T09:06:34;97040.00;;;14.73;72.93
74675;BME280;63200;48.810;12.352;2023-05-10T09:09:00;97015.41;;;14.56;73.21
74675;BME280;63200;48.810;12.352;2023-05-10T09:11:26;97031.13;;;14.59;72.99
74675;BME280;63200;48.810;12.352;2023-05-10T09:13:54;97006.06;;;14.48;72.82
74675;BME280;63200;48.810;12.352;2023-05-10T09:16:20;97052.06;;;14.90;72.51
74675;BME280;63200;48.810;12.352;2023-05-10T09:18:46;97048.31;;;15.12;72.76
74675;BME280;63200;48.810;12.352;2023-05-10T09:21:11;97053.06;;;15.41;72.43
74675;BME280;63200;48.810;12.352;2023-05-10T09:23:37;97055.00;;;15.79;71.65
74675;BME280;63200;48.810;12.352;2023-05-10T09:26:06;97041.56;;;16.04;69.53
74675;BME280;63200;48.810;12.352;2023-05-10T09:28:32;97047.34;;;16.32;68.79
74675;BME280;63200;48.810;12.352;2023-05-10T09:30:58;97054.56;;;16.58;68.31
74675;BME280;63200;48.810;12.352;2023-05-10T09:33:23;97041.13;;;16.44;67.75
74675;BME280;63200;48.810;12.352;2023-05-10T09:35:51;97046.88;;;16.52;68.32
74675;BME280;63200;48.810;12.352;2023-05-10T09:38:17;97053.56;;;16.63;66.34
74675;BME280;63200;48.810;12.352;2023-05-10T09:40:51;97055.63;;;16.66;67.49
74675;BME280;63200;48.810;12.352;2023-05-10T09:43:20;97060.31;;;16.65;66.75
74675;BME280;63200;48.810;12.352;2023-05-10T09:45:48;97040.72;;;16.33;67.30
74675;BME280;63200;48.810;12.352;2023-05-10T09:48:13;97058.56;;;16.40;67.18
74675;BME280;63200;48.810;12.352;2023-05-10T09:50:39;97058.31;;;16.32;67.19
74675;BME280;63200;48.810;12.352;2023-05-10T09:53:05;97047.94;;;16.38;67.80
74675;BME280;63200;48.810;12.352;2023-05-10T09:55:43;97045.41;;;16.33;67.28
74675;BME280;63200;48.810;12.352;2023-05-10T09:58:10;97049.56;;;16.09;66.69
74675;BME280;63200;48.810;12.352;2023-05-10T10:00:37;97052.78;;;15.81;68.06
74675;BME280;63200;48.810;12.352;2023-05-10T10:03:03;97050.28;;;15.59;69.46
74675;BME280;63200;48.810;12.352;2023-05-10T10:05:35;97055.22;;;15.18;68.44
74675;BME280;63200;48.810;12.352;2023-05-10T10:08:03;97040.59;;;15.05;70.04
74675;BME280;63200;48.810;12.352;2023-05-10T10:10:30;97050.59;;;14.92;70.54
74675;BME280;63200;48.810;12.352;2023-05-10T10:12:56;97026.16;;;14.52;71.90
74675;BME280;63200;48.810;12.352;2023-05-10T10:15:22;97051.38;;;14.49;72.64
74675;BME280;63200;48.810;12.352;2023-05-10T10:17:49;97049.78;;;14.48;72.60
74675;BME280;63200;48.810;12.352;2023-05-10T10:20:15;97049.94;;;14.43;72.96
74675;BME280;63200;48.810;12.352;2023-05-10T10:22:40;97038.84;;;14.48;72.64
74675;BME280;63200;48.810;12.352;2023-05-10T10:25:07;97032.41;;;14.44;72.46
74675;BME280;63200;48.810;12.352;2023-05-10T10:27:45;97041.63;;;14.83;72.46
74675;BME280;63200;48.810;12.352;2023-05-10T10:35:31;97005.03;;;15.23;69.87
74675;BME280;63200;48.810;12.352;2023-05-10T10:37:57;97008.66;;;15.36;69.33
74675;BME280;63200;48.810;12.352;2023-05-10T10:40:28;97010.25;;;15.45;69.00
74675;BME280;63200;48.810;12.352;2023-05-10T10:42:54;97037.22;;;15.64;69.78
74675;BME280;63200;48.810;12.352;2023-05-10T10:45:21;97034.09;;;15.84;68.72
74675;BME280;63200;48.810;12.352;2023-05-10T10:47:46;97035.66;;;15.93;67.75
74675;BME280;63200;48.810;12.352;2023-05-10T10:50:12;97043.97;;;16.27;66.88
74675;BME280;63200;48.810;12.352;2023-05-10T10:52:44;97007.97;;;16.79;65.98
74675;BME280;63200;48.810;12.352;2023-05-10T10:55:12;97034.75;;;17.28;64.60
74675;BME280;63200;48.810;12.352;2023-05-10T10:57:54;97031.31;;;18.02;61.43
74675;BME280;63200;48.810;12.352;2023-05-10T11:00:35;97032.63;;;18.33;59.74
74675;BME280;63200;48.810;12.352;2023-05-10T11:03:08;97032.28;;;18.47;60.45
74675;BME280;63200;48.810;12.352;2023-05-10T11:05:47;97036.56;;;17.70;60.92
74675;BME280;63200;48.810;12.352;2023-05-10T11:08:29;97032.53;;;17.68;63.87
74675;BME280;63200;48.810;12.352;2023-05-10T11:13:42;97032.03;;;16.74;62.02
74675;BME280;63200;48.810;12.352;2023-05-10T11:16:11;97033.69;;;16.87;64.19
74675;BME280;63200;48.810;12.352;2023-05-10T11:18:37;97028.66;;;17.10;64.42
74675;BME280;63200;48.810;12.352;2023-05-10T11:21:03;97003.34;;;16.92;62.69
74675;BME280;63200;48.810;12.352;2023-05-10T11:23:48;97025.69;;;17.15;61.36
74675;BME280;63200;48.810;12.352;2023-05-10T11:26:14;97028.41;;;17.03;62.18
74675;BME280;63200;48.810;12.352;2023-05-10T11:28:48;97017.66;;;16.98;60.64
74675;BME280;63200;48.810;12.352;2023-05-10T11:31:15;97025.53;;;16.99;62.81
74675;BME280;63200;48.810;12.352;2023-05-10T11:33:44;97029.69;;;17.06;61.60
74675;BME280;63200;48.810;12.352;2023-05-10T11:36:17;97010.13;;;16.74;62.93
74675;BME280;63200;48.810;12.352;2023-05-10T11:38:43;97031.22;;;16.94;62.83
74675;BME280;63200;48.810;12.352;2023-05-10T11:41:10;97027.22;;;16.92;63.35
74675;BME280;63200;48.810;12.352;2023-05-10T11:43:36;97026.41;;;16.91;63.47
74675;BME280;63200;48.810;12.352;2023-05-10T11:46:04;97022.34;;;16.76;62.14
74675;BME280;63200;48.810;12.352;2023-05-10T11:48:31;97025.28;;;16.71;62.96
74675;BME280;63200;48.810;12.352;2023-05-10T11:50:57;97019.34;;;16.69;63.71
74675;BME280;63200;48.810;12.352;2023-05-10T11:53:25;97020.97;;;16.82;64.81
74675;BME280;63200;48.810;12.352;2023-05-10T11:55:51;97037.44;;;17.04;66.04
74675;BME280;63200;48.810;12.352;2023-05-10T11:58:18;97020.53;;;17.14;63.02
74675;BME280;63200;48.810;12.352;2023-05-10T12:00:43;97031.25;;;17.40;62.01
74675;BME280;63200;48.810;12.352;2023-05-10T12:03:09;97033.06;;;17.36;61.20
74675;BME280;63200;48.810;12.352;2023-05-10T12:05:35;97032.56;;;17.09;59.17
74675;BME280;63200;48.810;12.352;2023-05-10T12:08:14;97005.53;;;16.99;62.31
74675;BME280;63200;48.810;12.352;2023-05-10T12:10:40;97038.63;;;17.27;60.83
74675;BME280;63200;48.810;12.352;2023-05-10T12:13:11;97011.88;;;17.12;62.06
74675;BME280;63200;48.810;12.352;2023-05-10T12:15:37;97029.88;;;17.01;60.83
74675;BME280;63200;48.810;12.352;2023-05-10T12:18:02;97034.22;;;17.02;60.65
74675;BME280;63200;48.810;12.352;2023-05-10T12:20:28;97037.22;;;16.88;61.08
74675;BME280;63200;48.810;12.352;2023-05-10T12:22:56;97035.22;;;16.76;62.04
74675;BME280;63200;48.810;12.352;2023-05-10T12:25:23;97034.84;;;16.65;63.63
74675;BME280;63200;48.810;12.352;2023-05-10T12:27:54;97038.66;;;16.52;64.23
74675;BME280;63200;48.810;12.352;2023-05-10T12:30:24;97036.31;;;16.41;65.70
74675;BME280;63200;48.810;12.352;2023-05-10T12:32:50;97026.09;;;16.29;67.03
74675;BME280;63200;48.810;12.352;2023-05-10T12:35:15;97033.38;;;16.25;66.23
74675;BME280;63200;48.810;12.352;2023-05-10T12:37:44;97018.13;;;16.15;66.94
74675;BME280;63200;48.810;12.352;2023-05-10T12:40:10;97039.56;;;16.13;67.27
74675;BME280;63200;48.810;12.352;2023-05-10T12:42:37;97007.53;;;15.84;66.96
74675;BME280;63200;48.810;12.352;2023-05-10T12:45:04;97015.13;;;15.70;67.62
74675;BME280;63200;48.810;12.352;2023-05-10T12:47:31;97045.19;;;15.87;68.99
74675;BME280;63200;48.810;12.352;2023-05-10T12:49:56;96966.94;;;15.47;68.58
74675;BME280;63200;48.810;12.352;2023-05-10T12:52:22;97035.09;;;16.09;68.32
74675;BME280;63200;48.810;12.352;2023-05-10T12:54:47;97040.03;;;16.15;68.69
74675;BME280;63200;48.810;12.352;2023-05-10T12:57:13;97045.41;;;16.33;68.62
74675;BME280;63200;48.810;12.352;2023-05-10T12:59:38;97037.78;;;16.39;67.20
74675;BME280;63200;48.810;12.352;2023-05-10T13:02:04;97047.22;;;16.50;66.37
74675;BME280;63200;48.810;12.352;2023-05-10T13:04:29;97039.94;;;16.33;64.96
74675;BME280;63200;48.810;12.352;2023-05-10T13:06:55;97030.09;;;16.32;65.27
74675;BME280;63200;48.810;12.352;2023-05-10T13:09:26;97023.88;;;16.23;67.50
74675;BME280;63200;48.810;12.352;2023-05-10T13:11:54;97034.91;;;16.35;68.20
74675;BME280;63200;48.810;12.352;2023-05-10T13:14:19;97036.41;;;16.32;68.13